sensor_id;sensor_type;location;lat;lon;timestamp;P1;durP1;ratioP1;P2;durP2;ratioP2
75628;SDS011;64213;46.452;16.994;2023-03-23T00:00:30;13.73;;;6.12;;
75628;SDS011;64213;46.452;16.994;2023-03-23T00:03:31;14.45;;;6.32;;
75628;SDS011;64213;46.452;16.994;2023-03-23T00:06:32;11.53;;;4.57;;
75628;SDS011;64213;46.452;16.994;2023-03-23T00:09:35;12.18;;;4.45;;
75628;SDS011;64213;46.452;16.994;2023-03-23T00:12:41;12.63;;;4.12;;
75628;SDS011;64213;46.452;16.994;2023-03-23T00:15:42;12.30;;;4.20;;
75628;SDS011;64213;46.452;16.994;2023-03-23T00:18:44;12.80;;;4.20;;
75628;SDS011;64213;46.452;16.994;2023-03-23T00:21:52;11.07;;;3.60;;
75628;SDS011;64213;46.452;16.994;2023-03-23T00:24:54;12.37;;;3.30;;
75628;SDS011;64213;46.452;16.994;2023-03-23T00:27:56;11.52;;;3.85;;
75628;SDS011;64213;46.452;16.994;2023-03-23T00:30:57;9.80;;;3.10;;
75628;SDS011;64213;46.452;16.994;2023-03-23T00:34:04;9.57;;;3.40;;
75628;SDS011;64213;46.452;16.994;2023-03-23T00:37:06;10.43;;;2.57;;
75628;SDS011;64213;46.452;16.994;2023-03-23T00:40:07;8.93;;;2.60;;
75628;SDS011;64213;46.452;16.994;2023-03-23T00:43:10;7.30;;;2.25;;
75628;SDS011;64213;46.452;16.994;2023-03-23T00:46:14;8.07;;;2.47;;
75628;SDS011;64213;46.452;16.994;2023-03-23T00:49:19;8.63;;;2.63;;
75628;SDS011;64213;46.452;16.994;2023-03-23T00:52:25;12.30;;;3.50;;
75628;SDS011;64213;46.452;16.994;2023-03-23T00:55:26;8.13;;;2.60;;
75628;SDS011;64213;46.452;16.994;2023-03-23T00:58:27;9.02;;;3.17;;
75628;SDS011;64213;46.452;16.994;2023-03-23T01:01:28;10.60;;;2.90;;
75628;SDS011;64213;46.452;16.994;2023-03-23T01:04:30;8.67;;;2.70;;
75628;SDS011;64213;46.452;16.994;2023-03-23T01:07:31;7.95;;;2.83;;
75628;SDS011;64213;46.452;16.994;2023-03-23T01:10:34;8.50;;;2.90;;
75628;SDS011;64213;46.452;16.994;2023-03-23T01:13:39;9.15;;;3.55;;
75628;SDS011;64213;46.452;16.994;2023-03-23T01:16:41;10.67;;;3.10;;
75628;SDS011;64213;46.452;16.994;2023-03-23T01:19:42;10.10;;;3.67;;
75628;SDS011;64213;46.452;16.994;2023-03-23T01:22:43;9.32;;;2.60;;
75628;SDS011;64213;46.452;16.994;2023-03-23T01:25:44;9.35;;;2.60;;
75628;SDS011;64213;46.452;16.994;2023-03-23T01:28:46;8.38;;;2.78;;
75628;SDS011;64213;46.452;16.994;2023-03-23T01:31:48;8.13;;;2.50;;
75628;SDS011;64213;46.452;16.994;2023-03-23T01:34:48;7.97;;;2.55;;
75628;SDS011;64213;46.452;16.994;2023-03-23T01:37:50;9.15;;;2.70;;
75628;SDS011;64213;46.452;16.994;2023-03-23T01:40:51;7.78;;;2.20;;
75628;SDS011;64213;46.452;16.994;2023-03-23T01:44:00;8.63;;;2.53;;
75628;SDS011;64213;46.452;16.994;2023-03-23T01:47:04;8.90;;;2.58;;
75628;SDS011;64213;46.452;16.994;2023-03-23T01:50:05;8.25;;;3.00;;
75628;SDS011;64213;46.452;16.994;2023-03-23T01:53:07;8.48;;;2.70;;
75628;SDS011;64213;46.452;16.994;2023-03-23T01:56:11;9.27;;;3.10;;
75628;SDS011;64213;46.452;16.994;2023-03-23T01:59:14;8.30;;;2.57;;
75628;SDS011;64213;46.452;16.994;2023-03-23T02:02:16;8.18;;;2.90;;
75628;SDS011;64213;46.452;16.994;2023-03-23T02:05:37;7.87;;;2.55;;
75628;SDS011;64213;46.452;16.994;2023-03-23T02:08:41;13.30;;;2.80;;
75628;SDS011;64213;46.452;16.994;2023-03-23T02:11:45;8.40;;;2.90;;
75628;SDS011;64213;46.452;16.994;2023-03-23T02:14:47;8.90;;;2.67;;
75628;SDS011;64213;46.452;16.994;2023-03-23T02:24:36;9.52;;;3.55;;
75628;SDS011;64213;46.452;16.994;2023-03-23T02:35:06;9.93;;;3.42;;
75628;SDS011;64213;46.452;16.994;2023-03-23T02:41:39;11.07;;;3.30;;
75628;SDS011;64213;46.452;16.994;2023-03-23T02:44:44;7.73;;;2.53;;
75628;SDS011;64213;46.452;16.994;2023-03-23T02:47:48;9.10;;;2.80;;
75628;SDS011;64213;46.452;16.994;2023-03-23T02:50:52;8.50;;;2.80;;
75628;SDS011;64213;46.452;16.994;2023-03-23T02:53:53;7.95;;;2.80;;
75628;SDS011;64213;46.452;16.994;2023-03-23T02:56:56;8.18;;;2.65;;
75628;SDS011;64213;46.452;16.994;2023-03-23T02:59:58;9.27;;;2.50;;
75628;SDS011;64213;46.452;16.994;2023-03-23T03:02:59;9.07;;;2.28;;
75628;SDS011;64213;46.452;16.994;2023-03-23T03:06:09;10.07;;;3.03;;
75628;SDS011;64213;46.452;16.994;2023-03-23T03:12:53;8.03;;;2.77;;
75628;SDS011;64213;46.452;16.994;2023-03-23T03:16:14;7.70;;;2.60;;
75628;SDS011;64213;46.452;16.994;2023-03-23T03:19:19;8.82;;;2.75;;
75628;SDS011;64213;46.452;16.994;2023-03-23T03:22:26;8.52;;;2.37;;
75628;SDS011;64213;46.452;16.994;2023-03-23T03:25:29;7.30;;;2.33;;
75628;SDS011;64213;46.452;16.994;2023-03-23T03:28:32;7.33;;;2.20;;
75628;SDS011;64213;46.452;16.994;2023-03-23T03:31:35;7.63;;;2.57;;
75628;SDS011;64213;46.452;16.994;2023-03-23T03:34:39;8.30;;;3.05;;
75628;SDS011;64213;46.452;16.994;2023-03-23T03:37:40;8.98;;;2.80;;
75628;SDS011;64213;46.452;16.994;2023-03-23T03:40:41;9.50;;;3.25;;
75628;SDS011;64213;46.452;16.994;2023-03-23T03:43:42;9.30;;;3.33;;
75628;SDS011;64213;46.452;16.994;2023-03-23T03:46:43;9.48;;;3.20;;
75628;SDS011;64213;46.452;16.994;2023-03-23T03:49:44;8.93;;;3.15;;
75628;SDS011;64213;46.452;16.994;2023-03-23T03:52:45;9.75;;;3.80;;
75628;SDS011;64213;46.452;16.994;2023-03-23T03:55:46;8.70;;;3.33;;
75628;SDS011;64213;46.452;16.994;2023-03-23T03:58:49;9.85;;;3.20;;
75628;SDS011;64213;46.452;16.994;2023-03-23T04:01:50;10.93;;;3.33;;
75628;SDS011;64213;46.452;16.994;2023-03-23T04:04:54;9.50;;;3.90;;
75628;SDS011;64213;46.452;16.994;2023-03-23T04:07:55;10.30;;;3.60;;
75628;SDS011;64213;46.452;16.994;2023-03-23T04:11:02;13.32;;;3.35;;
75628;SDS011;64213;46.452;16.994;2023-03-23T04:14:03;10.23;;;3.42;;
75628;SDS011;64213;46.452;16.994;2023-03-23T04:17:04;15.13;;;4.00;;
75628;SDS011;64213;46.452;16.994;2023-03-23T04:20:05;14.27;;;4.35;;
75628;SDS011;64213;46.452;16.994;2023-03-23T04:23:17;10.70;;;4.07;;
75628;SDS011;64213;46.452;16.994;2023-03-23T04:26:22;11.30;;;4.18;;
75628;SDS011;64213;46.452;16.994;2023-03-23T04:29:22;10.95;;;3.90;;
75628;SDS011;64213;46.452;16.994;2023-03-23T04:32:24;15.50;;;5.43;;
75628;SDS011;64213;46.452;16.994;2023-03-23T04:35:29;14.20;;;4.90;;
75628;SDS011;64213;46.452;16.994;2023-03-23T04:38:30;13.25;;;5.12;;
75628;SDS011;64213;46.452;16.994;2023-03-23T04:41:33;15.55;;;4.80;;
75628;SDS011;64213;46.452;16.994;2023-03-23T04:44:34;13.43;;;4.53;;
75628;SDS011;64213;46.452;16.994;2023-03-23T04:47:36;15.37;;;5.57;;
75628;SDS011;64213;46.452;16.994;2023-03-23T04:50:40;11.77;;;4.72;;
75628;SDS011;64213;46.452;16.994;2023-03-23T04:53:41;10.05;;;3.97;;
75628;SDS011;64213;46.452;16.994;2023-03-23T04:56:42;13.93;;;4.40;;
75628;SDS011;64213;46.452;16.994;2023-03-23T04:59:44;13.73;;;5.83;;
75628;SDS011;64213;46.452;16.994;2023-03-23T05:02:45;16.30;;;5.60;;
75628;SDS011;64213;46.452;16.994;2023-03-23T05:05:47;16.00;;;5.25;;
75628;SDS011;64213;46.452;16.994;2023-03-23T05:08:52;12.60;;;5.40;;
75628;SDS011;64213;46.452;16.994;2023-03-23T05:11:53;12.90;;;6.03;;
75628;SDS011;64213;46.452;16.994;2023-03-23T05:14:54;14.73;;;4.78;;
75628;SDS011;64213;46.452;16.994;2023-03-23T05:17:55;12.35;;;3.97;;
75628;SDS011;64213;46.452;16.994;2023-03-23T05:20:59;9.32;;;3.37;;
75628;SDS011;64213;46.452;16.994;2023-03-23T05:24:01;12.60;;;4.93;;
75628;SDS011;64213;46.452;16.994;2023-03-23T05:27:02;14.27;;;4.70;;
75628;SDS011;64213;46.452;16.994;2023-03-23T05:30:04;15.10;;;4.68;;
75628;SDS011;64213;46.452;16.994;2023-03-23T05:33:07;10.63;;;4.03;;
75628;SDS011;64213;46.452;16.994;2023-03-23T05:36:08;12.55;;;4.87;;
75628;SDS011;64213;46.452;16.994;2023-03-23T05:39:11;11.07;;;4.60;;
75628;SDS011;64213;46.452;16.994;2023-03-23T05:42:13;13.55;;;5.10;;
75628;SDS011;64213;46.452;16.994;2023-03-23T05:45:14;11.23;;;4.47;;
75628;SDS011;64213;46.452;16.994;2023-03-23T05:48:16;14.15;;;5.75;;
75628;SDS011;64213;46.452;16.994;2023-03-23T05:51:17;14.97;;;6.50;;
75628;SDS011;64213;46.452;16.994;2023-03-23T05:54:19;16.93;;;5.83;;
75628;SDS011;64213;46.452;16.994;2023-03-23T05:57:20;14.50;;;6.43;;
75628;SDS011;64213;46.452;16.994;2023-03-23T06:00:23;24.92;;;10.20;;
75628;SDS011;64213;46.452;16.994;2023-03-23T06:03:25;20.83;;;8.25;;
75628;SDS011;64213;46.452;16.994;2023-03-23T06:06:26;21.63;;;7.07;;
75628;SDS011;64213;46.452;16.994;2023-03-23T06:09:29;20.73;;;6.97;;
75628;SDS011;64213;46.452;16.994;2023-03-23T06:12:30;15.48;;;5.75;;
75628;SDS011;64213;46.452;16.994;2023-03-23T06:15:31;18.02;;;7.03;;
75628;SDS011;64213;46.452;16.994;2023-03-23T06:18:33;17.65;;;5.45;;
75628;SDS011;64213;46.452;16.994;2023-03-23T06:21:34;11.97;;;4.33;;
75628;SDS011;64213;46.452;16.994;2023-03-23T06:24:35;11.88;;;4.30;;
75628;SDS011;64213;46.452;16.994;2023-03-23T06:27:36;13.70;;;4.47;;
75628;SDS011;64213;46.452;16.994;2023-03-23T06:30:37;11.05;;;3.42;;
75628;SDS011;64213;46.452;16.994;2023-03-23T06:33:38;8.73;;;3.17;;
75628;SDS011;64213;46.452;16.994;2023-03-23T06:36:41;9.35;;;3.20;;
75628;SDS011;64213;46.452;16.994;2023-03-23T06:39:44;8.85;;;3.20;;
75628;SDS011;64213;46.452;16.994;2023-03-23T06:42:45;8.50;;;2.97;;
75628;SDS011;64213;46.452;16.994;2023-03-23T06:45:47;9.05;;;3.12;;
75628;SDS011;64213;46.452;16.994;2023-03-23T06:48:48;9.07;;;3.00;;
75628;SDS011;64213;46.452;16.994;2023-03-23T06:51:50;10.48;;;3.60;;
75628;SDS011;64213;46.452;16.994;2023-03-23T06:54:51;8.43;;;3.28;;
75628;SDS011;64213;46.452;16.994;2023-03-23T06:57:52;9.45;;;3.22;;
75628;SDS011;64213;46.452;16.994;2023-03-23T07:00:54;8.33;;;3.27;;
75628;SDS011;64213;46.452;16.994;2023-03-23T07:03:59;9.18;;;3.17;;
75628;SDS011;64213;46.452;16.994;2023-03-23T07:07:00;9.20;;;3.70;;
75628;SDS011;64213;46.452;16.994;2023-03-23T07:10:02;11.00;;;4.03;;
75628;SDS011;64213;46.452;16.994;2023-03-23T07:13:04;12.63;;;3.70;;
75628;SDS011;64213;46.452;16.994;2023-03-23T07:16:06;8.60;;;3.70;;
75628;SDS011;64213;46.452;16.994;2023-03-23T07:19:07;11.45;;;4.05;;
75628;SDS011;64213;46.452;16.994;2023-03-23T07:22:09;11.70;;;4.18;;
75628;SDS011;64213;46.452;16.994;2023-03-23T07:25:10;14.00;;;3.85;;
75628;SDS011;64213;46.452;16.994;2023-03-23T07:28:11;9.97;;;4.10;;
75628;SDS011;64213;46.452;16.994;2023-03-23T07:31:13;11.43;;;3.80;;
75628;SDS011;64213;46.452;16.994;2023-03-23T07:34:14;9.98;;;3.53;;
75628;SDS011;64213;46.452;16.994;2023-03-23T07:37:15;11.10;;;3.85;;
75628;SDS011;64213;46.452;16.994;2023-03-23T07:40:16;8.55;;;3.40;;
75628;SDS011;64213;46.452;16.994;2023-03-23T07:43:18;9.03;;;3.27;;
75628;SDS011;64213;46.452;16.994;2023-03-23T07:46:19;9.90;;;3.78;;
75628;SDS011;64213;46.452;16.994;2023-03-23T07:49:20;9.65;;;4.28;;
75628;SDS011;64213;46.452;16.994;2023-03-23T07:52:21;11.73;;;4.65;;
75628;SDS011;64213;46.452;16.994;2023-03-23T07:55:23;9.73;;;4.07;;
75628;SDS011;64213;46.452;16.994;2023-03-23T07:58:25;9.88;;;3.80;;
75628;SDS011;64213;46.452;16.994;2023-03-23T08:01:26;8.95;;;3.42;;
75628;SDS011;64213;46.452;16.994;2023-03-23T08:04:27;10.18;;;3.87;;
75628;SDS011;64213;46.452;16.994;2023-03-23T08:07:28;12.10;;;4.22;;
75628;SDS011;64213;46.452;16.994;2023-03-23T08:10:31;10.70;;;3.50;;
75628;SDS011;64213;46.452;16.994;2023-03-23T08:13:32;8.27;;;3.72;;
75628;SDS011;64213;46.452;16.994;2023-03-23T08:16:36;8.10;;;3.72;;
75628;SDS011;64213;46.452;16.994;2023-03-23T08:19:37;9.52;;;4.10;;
75628;SDS011;64213;46.452;16.994;2023-03-23T08:22:41;9.57;;;4.20;;
75628;SDS011;64213;46.452;16.994;2023-03-23T08:25:45;8.13;;;3.63;;
75628;SDS011;64213;46.452;16.994;2023-03-23T08:28:46;13.07;;;4.87;;
75628;SDS011;64213;46.452;16.994;2023-03-23T08:31:48;11.40;;;3.97;;
75628;SDS011;64213;46.452;16.994;2023-03-23T08:34:49;10.63;;;4.00;;
75628;SDS011;64213;46.452;16.994;2023-03-23T08:37:50;8.73;;;3.30;;
75628;SDS011;64213;46.452;16.994;2023-03-23T08:40:59;11.05;;;3.92;;
75628;SDS011;64213;46.452;16.994;2023-03-23T08:44:02;9.82;;;3.85;;
75628;SDS011;64213;46.452;16.994;2023-03-23T08:47:04;10.65;;;3.80;;
75628;SDS011;64213;46.452;16.994;2023-03-23T08:50:07;8.70;;;3.60;;
75628;SDS011;64213;46.452;16.994;2023-03-23T08:53:11;10.33;;;3.87;;
75628;SDS011;64213;46.452;16.994;2023-03-23T08:56:14;8.60;;;3.85;;
75628;SDS011;64213;46.452;16.994;2023-03-23T08:59:15;10.82;;;3.50;;
75628;SDS011;64213;46.452;16.994;2023-03-23T09:02:16;12.50;;;4.15;;
75628;SDS011;64213;46.452;16.994;2023-03-23T09:05:19;9.35;;;4.10;;
75628;SDS011;64213;46.452;16.994;2023-03-23T09:08:22;8.50;;;3.60;;
75628;SDS011;64213;46.452;16.994;2023-03-23T09:11:23;9.45;;;3.35;;
75628;SDS011;64213;46.452;16.994;2023-03-23T09:14:24;10.70;;;4.25;;
75628;SDS011;64213;46.452;16.994;2023-03-23T09:17:25;10.38;;;3.97;;
75628;SDS011;64213;46.452;16.994;2023-03-23T09:20:26;9.50;;;3.50;;
75628;SDS011;64213;46.452;16.994;2023-03-23T09:23:28;10.10;;;3.67;;
75628;SDS011;64213;46.452;16.994;2023-03-23T09:26:31;10.27;;;3.75;;
75628;SDS011;64213;46.452;16.994;2023-03-23T09:29:32;9.10;;;3.03;;
75628;SDS011;64213;46.452;16.994;2023-03-23T09:32:33;9.25;;;3.60;;
75628;SDS011;64213;46.452;16.994;2023-03-23T09:35:35;8.67;;;4.00;;
75628;SDS011;64213;46.452;16.994;2023-03-23T09:38:39;7.82;;;3.40;;
75628;SDS011;64213;46.452;16.994;2023-03-23T09:54:49;11.43;;;4.35;;
75628;SDS011;64213;46.452;16.994;2023-03-23T09:57:59;8.65;;;3.80;;
75628;SDS011;64213;46.452;16.994;2023-03-23T10:01:15;10.65;;;4.20;;
75628;SDS011;64213;46.452;16.994;2023-03-23T10:04:30;10.43;;;3.70;;
75628;SDS011;64213;46.452;16.994;2023-03-23T10:07:38;9.97;;;4.00;;
75628;SDS011;64213;46.452;16.994;2023-03-23T10:20:32;14.20;;;7.05;;
75628;SDS011;64213;46.452;16.994;2023-03-23T10:23:46;14.43;;;6.63;;
75628;SDS011;64213;46.452;16.994;2023-03-23T10:39:31;13.70;;;6.27;;
75628;SDS011;64213;46.452;16.994;2023-03-23T10:42:47;12.68;;;6.25;;
75628;SDS011;64213;46.452;16.994;2023-03-23T10:45:50;11.80;;;6.37;;
75628;SDS011;64213;46.452;16.994;2023-03-23T10:48:56;16.87;;;6.03;;
75628;SDS011;64213;46.452;16.994;2023-03-23T10:55:08;12.57;;;6.17;;
75628;SDS011;64213;46.452;16.994;2023-03-23T10:58:12;14.48;;;6.07;;
75628;SDS011;64213;46.452;16.994;2023-03-23T11:01:33;14.80;;;7.90;;
75628;SDS011;64213;46.452;16.994;2023-03-23T11:04:37;14.32;;;7.20;;
75628;SDS011;64213;46.452;16.994;2023-03-23T11:07:38;14.97;;;6.80;;
75628;SDS011;64213;46.452;16.994;2023-03-23T11:10:41;13.57;;;7.30;;
75628;SDS011;64213;46.452;16.994;2023-03-23T11:13:56;15.23;;;7.03;;
75628;SDS011;64213;46.452;16.994;2023-03-23T11:17:00;12.90;;;6.60;;
75628;SDS011;64213;46.452;16.994;2023-03-23T11:20:10;14.70;;;6.95;;
75628;SDS011;64213;46.452;16.994;2023-03-23T11:26:34;13.50;;;7.37;;
75628;SDS011;64213;46.452;16.994;2023-03-23T11:29:45;16.52;;;8.20;;
75628;SDS011;64213;46.452;16.994;2023-03-23T11:33:00;12.70;;;6.87;;
75628;SDS011;64213;46.452;16.994;2023-03-23T11:36:03;16.35;;;7.95;;
75628;SDS011;64213;46.452;16.994;2023-03-23T11:39:23;14.47;;;7.90;;
75628;SDS011;64213;46.452;16.994;2023-03-23T11:42:38;17.20;;;7.82;;
75628;SDS011;64213;46.452;16.994;2023-03-23T11:45:47;14.65;;;8.38;;
75628;SDS011;64213;46.452;16.994;2023-03-23T11:49:12;16.10;;;7.97;;
75628;SDS011;64213;46.452;16.994;2023-03-23T11:52:26;15.43;;;7.50;;
75628;SDS011;64213;46.452;16.994;2023-03-23T11:58:55;14.27;;;7.75;;
75628;SDS011;64213;46.452;16.994;2023-03-23T12:02:03;15.95;;;8.88;;
75628;SDS011;64213;46.452;16.994;2023-03-23T12:08:51;16.65;;;9.35;;
75628;SDS011;64213;46.452;16.994;2023-03-23T12:12:07;18.07;;;8.93;;
75628;SDS011;64213;46.452;16.994;2023-03-23T12:24:59;16.77;;;8.68;;
75628;SDS011;64213;46.452;16.994;2023-03-23T12:34:41;13.98;;;7.03;;
75628;SDS011;64213;46.452;16.994;2023-03-23T12:48:23;15.73;;;7.90;;
75628;SDS011;64213;46.452;16.994;2023-03-23T12:51:31;15.82;;;7.70;;
75628;SDS011;64213;46.452;16.994;2023-03-23T12:54:53;14.38;;;7.50;;
75628;SDS011;64213;46.452;16.994;2023-03-23T12:58:18;16.30;;;7.20;;
75628;SDS011;64213;46.452;16.994;2023-03-23T13:01:26;13.50;;;7.10;;
75628;SDS011;64213;46.452;16.994;2023-03-23T13:04:35;14.07;;;7.15;;
75628;SDS011;64213;46.452;16.994;2023-03-23T13:07:43;14.48;;;7.43;;
75628;SDS011;64213;46.452;16.994;2023-03-23T13:10:49;14.07;;;7.60;;
75628;SDS011;64213;46.452;16.994;2023-03-23T13:13:53;15.00;;;6.60;;
75628;SDS011;64213;46.452;16.994;2023-03-23T13:20:41;11.93;;;6.07;;
75628;SDS011;64213;46.452;16.994;2023-03-23T13:23:50;14.38;;;6.65;;
75628;SDS011;64213;46.452;16.994;2023-03-23T13:26:59;12.57;;;6.28;;
75628;SDS011;64213;46.452;16.994;2023-03-23T13:30:01;10.48;;;5.57;;
75628;SDS011;64213;46.452;16.994;2023-03-23T13:33:05;12.20;;;6.17;;
75628;SDS011;64213;46.452;16.994;2023-03-23T13:36:12;14.02;;;5.72;;
75628;SDS011;64213;46.452;16.994;2023-03-23T13:39:28;12.82;;;6.20;;
75628;SDS011;64213;46.452;16.994;2023-03-23T13:42:33;12.80;;;5.12;;
75628;SDS011;64213;46.452;16.994;2023-03-23T13:49:03;11.27;;;4.70;;
75628;SDS011;64213;46.452;16.994;2023-03-23T13:52:16;11.80;;;4.47;;
75628;SDS011;64213;46.452;16.994;2023-03-23T13:58:29;13.20;;;5.97;;
75628;SDS011;64213;46.452;16.994;2023-03-23T14:01:31;12.60;;;5.57;;
75628;SDS011;64213;46.452;16.994;2023-03-23T14:04:36;11.43;;;5.70;;
75628;SDS011;64213;46.452;16.994;2023-03-23T14:11:14;12.32;;;4.80;;
75628;SDS011;64213;46.452;16.994;2023-03-23T14:14:22;10.70;;;5.22;;
75628;SDS011;64213;46.452;16.994;2023-03-23T14:17:28;15.13;;;5.70;;
75628;SDS011;64213;46.452;16.994;2023-03-23T14:20:31;10.30;;;4.53;;
75628;SDS011;64213;46.452;16.994;2023-03-23T14:23:35;12.13;;;5.05;;
75628;SDS011;64213;46.452;16.994;2023-03-23T14:26:36;11.12;;;5.15;;
75628;SDS011;64213;46.452;16.994;2023-03-23T14:29:38;10.80;;;5.30;;
75628;SDS011;64213;46.452;16.994;2023-03-23T14:32:39;10.73;;;4.80;;
75628;SDS011;64213;46.452;16.994;2023-03-23T14:35:41;12.13;;;5.77;;
75628;SDS011;64213;46.452;16.994;2023-03-23T14:38:44;12.82;;;6.22;;
75628;SDS011;64213;46.452;16.994;2023-03-23T14:41:45;12.93;;;5.78;;
75628;SDS011;64213;46.452;16.994;2023-03-23T14:44:47;10.13;;;5.35;;
75628;SDS011;64213;46.452;16.994;2023-03-23T14:47:51;11.48;;;5.28;;
75628;SDS011;64213;46.452;16.994;2023-03-23T14:50:57;11.07;;;5.63;;
75628;SDS011;64213;46.452;16.994;2023-03-23T14:54:07;10.40;;;5.12;;
75628;SDS011;64213;46.452;16.994;2023-03-23T14:57:14;14.10;;;5.37;;
75628;SDS011;64213;46.452;16.994;2023-03-23T15:00:17;14.02;;;5.70;;
75628;SDS011;64213;46.452;16.994;2023-03-23T15:03:22;12.57;;;5.68;;
75628;SDS011;64213;46.452;16.994;2023-03-23T15:06:25;11.20;;;4.90;;
75628;SDS011;64213;46.452;16.994;2023-03-23T15:09:30;11.77;;;5.30;;
75628;SDS011;64213;46.452;16.994;2023-03-23T15:12:32;11.30;;;5.10;;
75628;SDS011;64213;46.452;16.994;2023-03-23T15:15:35;9.95;;;5.28;;
75628;SDS011;64213;46.452;16.994;2023-03-23T15:18:37;10.40;;;5.20;;
75628;SDS011;64213;46.452;16.994;2023-03-23T15:25:02;13.32;;;5.40;;
75628;SDS011;64213;46.452;16.994;2023-03-23T15:31:05;10.07;;;5.40;;
75628;SDS011;64213;46.452;16.994;2023-03-23T15:34:10;12.13;;;4.93;;
75628;SDS011;64213;46.452;16.994;2023-03-23T15:37:19;11.63;;;4.90;;
75628;SDS011;64213;46.452;16.994;2023-03-23T15:40:26;12.52;;;5.55;;
75628;SDS011;64213;46.452;16.994;2023-03-23T15:43:33;9.43;;;4.57;;
75628;SDS011;64213;46.452;16.994;2023-03-23T15:46:36;9.75;;;4.47;;
75628;SDS011;64213;46.452;16.994;2023-03-23T15:49:58;12.47;;;5.43;;
75628;SDS011;64213;46.452;16.994;2023-03-23T15:53:19;10.98;;;5.20;;
75628;SDS011;64213;46.452;16.994;2023-03-23T15:56:26;11.52;;;5.07;;
75628;SDS011;64213;46.452;16.994;2023-03-23T15:59:30;14.35;;;6.10;;
75628;SDS011;64213;46.452;16.994;2023-03-23T16:02:32;12.68;;;5.80;;
75628;SDS011;64213;46.452;16.994;2023-03-23T16:05:35;11.90;;;4.83;;
75628;SDS011;64213;46.452;16.994;2023-03-23T16:08:38;12.57;;;5.65;;
75628;SDS011;64213;46.452;16.994;2023-03-23T16:11:54;13.68;;;6.57;;
75628;SDS011;64213;46.452;16.994;2023-03-23T16:14:56;14.40;;;6.72;;
75628;SDS011;64213;46.452;16.994;2023-03-23T16:17:58;11.12;;;5.18;;
75628;SDS011;64213;46.452;16.994;2023-03-23T16:21:00;11.23;;;5.30;;
75628;SDS011;64213;46.452;16.994;2023-03-23T16:24:04;11.18;;;4.30;;
75628;SDS011;64213;46.452;16.994;2023-03-23T16:27:08;9.90;;;4.43;;
75628;SDS011;64213;46.452;16.994;2023-03-23T16:30:19;14.27;;;4.68;;
75628;SDS011;64213;46.452;16.994;2023-03-23T16:33:26;10.13;;;4.30;;
75628;SDS011;64213;46.452;16.994;2023-03-23T16:36:28;12.30;;;4.53;;
75628;SDS011;64213;46.452;16.994;2023-03-23T16:39:30;10.52;;;4.60;;
75628;SDS011;64213;46.452;16.994;2023-03-23T16:42:32;12.88;;;5.87;;
75628;SDS011;64213;46.452;16.994;2023-03-23T16:45:35;9.82;;;4.57;;
75628;SDS011;64213;46.452;16.994;2023-03-23T16:48:39;14.95;;;4.82;;
75628;SDS011;64213;46.452;16.994;2023-03-23T16:51:42;11.90;;;4.63;;
75628;SDS011;64213;46.452;16.994;2023-03-23T16:54:44;9.40;;;4.00;;
75628;SDS011;64213;46.452;16.994;2023-03-23T16:57:46;10.05;;;4.60;;
75628;SDS011;64213;46.452;16.994;2023-03-23T17:00:50;12.00;;;4.25;;
75628;SDS011;64213;46.452;16.994;2023-03-23T17:03:53;11.18;;;3.97;;
75628;SDS011;64213;46.452;16.994;2023-03-23T17:06:56;10.80;;;4.10;;
75628;SDS011;64213;46.452;16.994;2023-03-23T17:10:01;10.18;;;3.85;;
75628;SDS011;64213;46.452;16.994;2023-03-23T17:13:03;12.30;;;5.62;;
75628;SDS011;64213;46.452;16.994;2023-03-23T17:16:06;12.60;;;5.72;;
75628;SDS011;64213;46.452;16.994;2023-03-23T17:19:09;11.48;;;5.70;;
75628;SDS011;64213;46.452;16.994;2023-03-23T17:22:11;21.23;;;8.50;;
75628;SDS011;64213;46.452;16.994;2023-03-23T17:25:14;19.85;;;8.63;;
75628;SDS011;64213;46.452;16.994;2023-03-23T17:28:17;19.92;;;8.38;;
75628;SDS011;64213;46.452;16.994;2023-03-23T17:31:21;17.58;;;7.75;;
75628;SDS011;64213;46.452;16.994;2023-03-23T17:34:24;17.20;;;7.45;;
75628;SDS011;64213;46.452;16.994;2023-03-23T17:37:26;13.37;;;6.03;;
75628;SDS011;64213;46.452;16.994;2023-03-23T17:40:30;13.40;;;6.10;;
75628;SDS011;64213;46.452;16.994;2023-03-23T17:43:33;15.15;;;6.78;;
75628;SDS011;64213;46.452;16.994;2023-03-23T17:46:37;15.27;;;6.47;;
75628;SDS011;64213;46.452;16.994;2023-03-23T17:49:39;14.05;;;7.03;;
75628;SDS011;64213;46.452;16.994;2023-03-23T17:52:42;15.30;;;6.80;;
75628;SDS011;64213;46.452;16.994;2023-03-23T17:55:45;16.77;;;7.68;;
75628;SDS011;64213;46.452;16.994;2023-03-23T17:58:47;14.20;;;7.55;;
75628;SDS011;64213;46.452;16.994;2023-03-23T18:01:51;17.17;;;7.57;;
75628;SDS011;64213;46.452;16.994;2023-03-23T18:04:56;15.48;;;7.47;;
75628;SDS011;64213;46.452;16.994;2023-03-23T18:08:00;13.60;;;6.90;;
75628;SDS011;64213;46.452;16.994;2023-03-23T18:11:03;14.50;;;6.30;;
75628;SDS011;64213;46.452;16.994;2023-03-23T18:14:06;15.18;;;6.32;;
75628;SDS011;64213;46.452;16.994;2023-03-23T18:17:09;15.70;;;7.18;;
75628;SDS011;64213;46.452;16.994;2023-03-23T18:20:12;14.73;;;6.70;;
75628;SDS011;64213;46.452;16.994;2023-03-23T18:23:14;18.30;;;8.87;;
75628;SDS011;64213;46.452;16.994;2023-03-23T18:26:17;15.95;;;8.57;;
75628;SDS011;64213;46.452;16.994;2023-03-23T18:29:23;20.62;;;10.23;;
75628;SDS011;64213;46.452;16.994;2023-03-23T18:32:26;18.35;;;9.90;;
75628;SDS011;64213;46.452;16.994;2023-03-23T18:35:29;17.62;;;9.40;;
75628;SDS011;64213;46.452;16.994;2023-03-23T18:38:32;19.27;;;9.30;;
75628;SDS011;64213;46.452;16.994;2023-03-23T18:41:38;17.80;;;9.07;;
75628;SDS011;64213;46.452;16.994;2023-03-23T18:44:41;21.08;;;9.85;;
75628;SDS011;64213;46.452;16.994;2023-03-23T18:47:44;21.00;;;10.13;;
75628;SDS011;64213;46.452;16.994;2023-03-23T18:50:48;21.33;;;10.57;;
75628;SDS011;64213;46.452;16.994;2023-03-23T18:53:54;22.47;;;9.27;;
75628;SDS011;64213;46.452;16.994;2023-03-23T18:56:57;18.50;;;9.13;;
75628;SDS011;64213;46.452;16.994;2023-03-23T19:00:01;18.58;;;8.93;;
75628;SDS011;64213;46.452;16.994;2023-03-23T19:03:08;17.15;;;8.68;;
75628;SDS011;64213;46.452;16.994;2023-03-23T19:06:17;17.92;;;8.50;;
75628;SDS011;64213;46.452;16.994;2023-03-23T19:09:23;18.47;;;10.07;;
75628;SDS011;64213;46.452;16.994;2023-03-23T19:12:27;21.40;;;9.68;;
75628;SDS011;64213;46.452;16.994;2023-03-23T19:15:31;18.95;;;9.60;;
75628;SDS011;64213;46.452;16.994;2023-03-23T19:18:35;22.25;;;9.02;;
75628;SDS011;64213;46.452;16.994;2023-03-23T19:21:40;18.23;;;9.93;;
75628;SDS011;64213;46.452;16.994;2023-03-23T19:24:48;14.90;;;7.73;;
75628;SDS011;64213;46.452;16.994;2023-03-23T19:27:51;18.10;;;8.77;;
75628;SDS011;64213;46.452;16.994;2023-03-23T19:30:57;17.92;;;9.18;;
75628;SDS011;64213;46.452;16.994;2023-03-23T19:34:00;19.02;;;8.70;;
75628;SDS011;64213;46.452;16.994;2023-03-23T19:37:04;20.90;;;10.23;;
75628;SDS011;64213;46.452;16.994;2023-03-23T19:40:13;17.90;;;8.50;;
75628;SDS011;64213;46.452;16.994;2023-03-23T19:43:37;20.58;;;10.13;;
75628;SDS011;64213;46.452;16.994;2023-03-23T19:46:41;15.70;;;7.43;;
75628;SDS011;64213;46.452;16.994;2023-03-23T19:49:45;17.87;;;9.00;;
75628;SDS011;64213;46.452;16.994;2023-03-23T19:52:49;19.30;;;9.15;;
75628;SDS011;64213;46.452;16.994;2023-03-23T19:55:52;18.83;;;7.07;;
75628;SDS011;64213;46.452;16.994;2023-03-23T19:58:56;14.75;;;6.35;;